sensor_id;sensor_type;location;lat;lon;timestamp;temperature;humidity
29093;DHT22;16167;48.768;14.984;2023-09-19T00:00:56;17.00;91.70
29093;DHT22;16167;48.768;14.984;2023-09-19T00:03:24;17.00;92.80
29093;DHT22;16167;48.768;14.984;2023-09-19T00:05:54;16.90;92.60
29093;DHT22;16167;48.768;14.984;2023-09-19T00:08:22;16.90;92.20
29093;DHT22;16167;48.768;14.984;2023-09-19T00:10:50;16.90;92.40
29093;DHT22;16167;48.768;14.984;2023-09-19T00:13:18;16.90;93.00
29093;DHT22;16167;48.768;14.984;2023-09-19T00:15:46;16.90;91.80
29093;DHT22;16167;48.768;14.984;2023-09-19T00:18:16;16.90;92.20
29093;DHT22;16167;48.768;14.984;2023-09-19T00:20:45;16.90;91.70
29093;DHT22;16167;48.768;14.984;2023-09-19T00:23:15;16.80;90.30
29093;DHT22;16167;48.768;14.984;2023-09-19T00:25:43;16.80;90.80
29093;DHT22;16167;48.768;14.984;2023-09-19T00:28:12;16.80;90.40
29093;DHT22;16167;48.768;14.984;2023-09-19T00:30:42;16.80;89.10
29093;DHT22;16167;48.768;14.984;2023-09-19T00:33:10;16.80;91.20
29093;DHT22;16167;48.768;14.984;2023-09-19T00:35:46;16.70;84.20
29093;DHT22;16167;48.768;14.984;2023-09-19T00:38:15;16.80;80.50
29093;DHT22;16167;48.768;14.984;2023-09-19T00:40:46;16.70;80.90
29093;DHT22;16167;48.768;14.984;2023-09-19T00:43:14;16.70;85.40
29093;DHT22;16167;48.768;14.984;2023-09-19T00:45:45;16.70;87.60
29093;DHT22;16167;48.768;14.984;2023-09-19T00:50:44;16.60;90.30
29093;DHT22;16167;48.768;14.984;2023-09-19T00:53:17;16.50;91.50
29093;DHT22;16167;48.768;14.984;2023-09-19T00:55:46;16.50;93.00
29093;DHT22;16167;48.768;14.984;2023-09-19T00:58:14;16.50;93.00
29093;DHT22;16167;48.768;14.984;2023-09-19T01:00:44;16.50;92.40
29093;DHT22;16167;48.768;14.984;2023-09-19T01:03:12;16.50;92.90
29093;DHT22;16167;48.768;14.984;2023-09-19T01:05:41;16.50;92.40
29093;DHT22;16167;48.768;14.984;2023-09-19T01:08:10;16.40;93.40
29093;DHT22;16167;48.768;14.984;2023-09-19T01:10:42;16.40;93.00
29093;DHT22;16167;48.768;14.984;2023-09-19T01:13:14;16.40;90.60
29093;DHT22;16167;48.768;14.984;2023-09-19T01:15:44;16.40;83.20
29093;DHT22;16167;48.768;14.984;2023-09-19T01:18:17;16.40;79.10
29093;DHT22;16167;48.768;14.984;2023-09-19T01:20:53;16.40;63.30
29093;DHT22;16167;48.768;14.984;2023-09-19T01:23:26;16.40;55.50
29093;DHT22;16167;48.768;14.984;2023-09-19T01:28:45;16.40;57.50
29093;DHT22;16167;48.768;14.984;2023-09-19T01:31:22;16.40;61.10
29093;DHT22;16167;48.768;14.984;2023-09-19T01:33:59;16.30;73.10
29093;DHT22;16167;48.768;14.984;2023-09-19T01:36:27;16.30;68.70
29093;DHT22;16167;48.768;14.984;2023-09-19T01:38:57;16.20;74.20
29093;DHT22;16167;48.768;14.984;2023-09-19T01:41:29;16.10;58.70
29093;DHT22;16167;48.768;14.984;2023-09-19T01:44:01;16.10;60.30
29093;DHT22;16167;48.768;14.984;2023-09-19T01:46:34;16.10;69.60
29093;DHT22;16167;48.768;14.984;2023-09-19T01:49:06;16.10;74.40
29093;DHT22;16167;48.768;14.984;2023-09-19T01:51:37;16.10;64.50
29093;DHT22;16167;48.768;14.984;2023-09-19T01:54:08;16.00;55.80
29093;DHT22;16167;48.768;14.984;2023-09-19T01:56:38;16.00;52.00
29093;DHT22;16167;48.768;14.984;2023-09-19T01:59:09;16.00;58.00
29093;DHT22;16167;48.768;14.984;2023-09-19T02:01:39;16.00;64.90
29093;DHT22;16167;48.768;14.984;2023-09-19T02:04:11;16.00;54.90
29093;DHT22;16167;48.768;14.984;2023-09-19T02:06:40;16.00;53.50
29093;DHT22;16167;48.768;14.984;2023-09-19T02:09:08;16.00;51.40
29093;DHT22;16167;48.768;14.984;2023-09-19T02:11:36;16.00;37.40
29093;DHT22;16167;48.768;14.984;2023-09-19T02:14:05;16.00;31.40
29093;DHT22;16167;48.768;14.984;2023-09-19T02:16:35;16.00;31.20
29093;DHT22;16167;48.768;14.984;2023-09-19T02:19:05;16.10;36.10
29093;DHT22;16167;48.768;14.984;2023-09-19T02:21:33;16.10;30.20
29093;DHT22;16167;48.768;14.984;2023-09-19T02:24:01;16.00;27.20
29093;DHT22;16167;48.768;14.984;2023-09-19T02:26:30;16.00;29.10
29093;DHT22;16167;48.768;14.984;2023-09-19T02:28:58;16.10;19.90
29093;DHT22;16167;48.768;14.984;2023-09-19T02:31:27;16.10;28.50
29093;DHT22;16167;48.768;14.984;2023-09-19T02:33:56;16.10;32.00
29093;DHT22;16167;48.768;14.984;2023-09-19T02:36:25;16.10;28.00
29093;DHT22;16167;48.768;14.984;2023-09-19T02:38:53;16.10;26.90
29093;DHT22;16167;48.768;14.984;2023-09-19T02:41:21;16.10;28.10
29093;DHT22;16167;48.768;14.984;2023-09-19T02:43:49;16.00;29.00
29093;DHT22;16167;48.768;14.984;2023-09-19T02:46:17;16.10;39.10
29093;DHT22;16167;48.768;14.984;2023-09-19T02:48:46;16.10;43.70
29093;DHT22;16167;48.768;14.984;2023-09-19T02:51:14;16.00;55.90
29093;DHT22;16167;48.768;14.984;2023-09-19T02:53:43;16.00;60.60
29093;DHT22;16167;48.768;14.984;2023-09-19T02:56:11;15.90;59.60
29093;DHT22;16167;48.768;14.984;2023-09-19T02:58:40;15.90;60.70
29093;DHT22;16167;48.768;14.984;2023-09-19T03:01:09;15.90;61.30
29093;DHT22;16167;48.768;14.984;2023-09-19T03:03:39;15.80;76.30
29093;DHT22;16167;48.768;14.984;2023-09-19T03:06:07;15.90;81.40
29093;DHT22;16167;48.768;14.984;2023-09-19T03:08:36;15.80;85.90
29093;DHT22;16167;48.768;14.984;2023-09-19T03:11:07;15.80;85.60
29093;DHT22;16167;48.768;14.984;2023-09-19T03:13:39;15.70;88.50
29093;DHT22;16167;48.768;14.984;2023-09-19T03:16:09;15.70;90.30
29093;DHT22;16167;48.768;14.984;2023-09-19T03:18:37;15.70;91.00
29093;DHT22;16167;48.768;14.984;2023-09-19T03:21:05;15.70;91.70
29093;DHT22;16167;48.768;14.984;2023-09-19T03:23:33;15.60;92.50
29093;DHT22;16167;48.768;14.984;2023-09-19T03:26:01;15.50;92.40
29093;DHT22;16167;48.768;14.984;2023-09-19T03:28:32;15.60;92.70
29093;DHT22;16167;48.768;14.984;2023-09-19T03:31:01;15.50;92.90
29093;DHT22;16167;48.768;14.984;2023-09-19T03:33:29;15.50;92.50
29093;DHT22;16167;48.768;14.984;2023-09-19T03:35:59;15.50;93.10
29093;DHT22;16167;48.768;14.984;2023-09-19T03:38:27;15.40;91.40
29093;DHT22;16167;48.768;14.984;2023-09-19T03:40:56;15.40;92.70
29093;DHT22;16167;48.768;14.984;2023-09-19T03:43:23;15.40;90.30
29093;DHT22;16167;48.768;14.984;2023-09-19T03:45:53;15.40;86.90
29093;DHT22;16167;48.768;14.984;2023-09-19T03:48:21;15.40;87.10
29093;DHT22;16167;48.768;14.984;2023-09-19T03:50:49;15.40;87.90
29093;DHT22;16167;48.768;14.984;2023-09-19T03:53:17;15.40;90.00
29093;DHT22;16167;48.768;14.984;2023-09-19T03:55:45;15.40;75.40
29093;DHT22;16167;48.768;14.984;2023-09-19T03:58:14;15.40;82.00
29093;DHT22;16167;48.768;14.984;2023-09-19T04:00:42;15.40;84.90
29093;DHT22;16167;48.768;14.984;2023-09-19T04:03:11;15.40;82.40
29093;DHT22;16167;48.768;14.984;2023-09-19T04:05:46;15.40;88.90
29093;DHT22;16167;48.768;14.984;2023-09-19T04:08:14;15.40;83.30
29093;DHT22;16167;48.768;14.984;2023-09-19T04:10:42;15.40;90.90
29093;DHT22;16167;48.768;14.984;2023-09-19T04:13:11;15.30;92.70
29093;DHT22;16167;48.768;14.984;2023-09-19T04:15:39;15.30;92.40
29093;DHT22;16167;48.768;14.984;2023-09-19T04:18:07;15.30;92.30
29093;DHT22;16167;48.768;14.984;2023-09-19T04:20:37;15.30;94.00
29093;DHT22;16167;48.768;14.984;2023-09-19T04:23:05;15.20;93.10
29093;DHT22;16167;48.768;14.984;2023-09-19T04:25:33;15.20;94.20
29093;DHT22;16167;48.768;14.984;2023-09-19T04:28:01;15.20;95.60
29093;DHT22;16167;48.768;14.984;2023-09-19T04:30:31;15.20;96.10
29093;DHT22;16167;48.768;14.984;2023-09-19T04:32:58;15.20;92.30
29093;DHT22;16167;48.768;14.984;2023-09-19T04:35:32;15.20;90.00
29093;DHT22;16167;48.768;14.984;2023-09-19T04:38:02;15.20;89.00
29093;DHT22;16167;48.768;14.984;2023-09-19T04:40:33;15.20;90.90
29093;DHT22;16167;48.768;14.984;2023-09-19T04:43:01;15.20;84.60
29093;DHT22;16167;48.768;14.984;2023-09-19T04:45:29;15.20;82.50
29093;DHT22;16167;48.768;14.984;2023-09-19T04:47:57;15.20;80.20
29093;DHT22;16167;48.768;14.984;2023-09-19T04:50:25;15.20;80.60
29093;DHT22;16167;48.768;14.984;2023-09-19T04:52:54;15.20;78.90
29093;DHT22;16167;48.768;14.984;2023-09-19T04:55:24;15.20;76.60
29093;DHT22;16167;48.768;14.984;2023-09-19T04:57:52;15.20;78.60
29093;DHT22;16167;48.768;14.984;2023-09-19T05:00:22;15.20;81.50
29093;DHT22;16167;48.768;14.984;2023-09-19T05:02:51;15.20;87.10
29093;DHT22;16167;48.768;14.984;2023-09-19T05:05:19;15.20;84.20
29093;DHT22;16167;48.768;14.984;2023-09-19T05:07:49;15.20;84.40
29093;DHT22;16167;48.768;14.984;2023-09-19T05:10:18;15.20;89.60
29093;DHT22;16167;48.768;14.984;2023-09-19T05:12:47;15.20;88.40
29093;DHT22;16167;48.768;14.984;2023-09-19T05:15:18;15.20;91.10
29093;DHT22;16167;48.768;14.984;2023-09-19T05:17:49;15.20;92.20
29093;DHT22;16167;48.768;14.984;2023-09-19T05:20:23;15.20;93.70
29093;DHT22;16167;48.768;14.984;2023-09-19T05:23:00;15.20;92.80
29093;DHT22;16167;48.768;14.984;2023-09-19T05:25:29;15.20;94.20
29093;DHT22;16167;48.768;14.984;2023-09-19T05:27:58;15.20;90.60
29093;DHT22;16167;48.768;14.984;2023-09-19T05:30:27;15.30;87.50
29093;DHT22;16167;48.768;14.984;2023-09-19T05:32:55;15.30;92.50
29093;DHT22;16167;48.768;14.984;2023-09-19T05:35:24;15.30;90.10
29093;DHT22;16167;48.768;14.984;2023-09-19T05:37:53;15.30;91.40
29093;DHT22;16167;48.768;14.984;2023-09-19T05:40:22;15.30;93.10
29093;DHT22;16167;48.768;14.984;2023-09-19T05:42:51;15.30;92.50
29093;DHT22;16167;48.768;14.984;2023-09-19T05:45:20;15.30;89.60
29093;DHT22;16167;48.768;14.984;2023-09-19T05:47:49;15.40;90.20
29093;DHT22;16167;48.768;14.984;2023-09-19T05:50:18;15.50;90.70
29093;DHT22;16167;48.768;14.984;2023-09-19T05:52:51;15.50;85.10
29093;DHT22;16167;48.768;14.984;2023-09-19T05:55:19;15.50;75.60
29093;DHT22;16167;48.768;14.984;2023-09-19T05:57:49;15.60;71.10
29093;DHT22;16167;48.768;14.984;2023-09-19T06:00:18;15.60;76.60
29093;DHT22;16167;48.768;14.984;2023-09-19T06:02:51;15.70;81.20
29093;DHT22;16167;48.768;14.984;2023-09-19T06:05:20;15.70;69.60
29093;DHT22;16167;48.768;14.984;2023-09-19T06:07:48;15.80;69.30
29093;DHT22;16167;48.768;14.984;2023-09-19T06:10:17;15.80;66.20
29093;DHT22;16167;48.768;14.984;2023-09-19T06:12:47;15.80;62.60
29093;DHT22;16167;48.768;14.984;2023-09-19T06:15:15;15.90;57.40
29093;DHT22;16167;48.768;14.984;2023-09-19T06:17:46;16.00;72.60
29093;DHT22;16167;48.768;14.984;2023-09-19T06:20:16;16.00;66.20
29093;DHT22;16167;48.768;14.984;2023-09-19T06:22:45;16.00;58.20
29093;DHT22;16167;48.768;14.984;2023-09-19T06:25:13;16.10;63.70
29093;DHT22;16167;48.768;14.984;2023-09-19T06:27:46;16.10;53.00
29093;DHT22;16167;48.768;14.984;2023-09-19T06:30:14;16.20;58.90
29093;DHT22;16167;48.768;14.984;2023-09-19T06:32:44;16.30;51.40
29093;DHT22;16167;48.768;14.984;2023-09-19T06:35:13;16.40;46.20
29093;DHT22;16167;48.768;14.984;2023-09-19T06:37:42;16.50;51.30
29093;DHT22;16167;48.768;14.984;2023-09-19T06:40:11;16.50;31.80
29093;DHT22;16167;48.768;14.984;2023-09-19T06:42:41;16.70;44.20
29093;DHT22;16167;48.768;14.984;2023-09-19T06:45:09;16.70;45.50
29093;DHT22;16167;48.768;14.984;2023-09-19T06:47:40;16.80;36.70
29093;DHT22;16167;48.768;14.984;2023-09-19T06:50:08;16.80;37.90
29093;DHT22;16167;48.768;14.984;2023-09-19T06:52:40;16.90;53.80
29093;DHT22;16167;48.768;14.984;2023-09-19T06:55:09;16.90;53.70
29093;DHT22;16167;48.768;14.984;2023-09-19T06:57:40;17.00;30.10
29093;DHT22;16167;48.768;14.984;2023-09-19T07:00:10;17.10;30.20
29093;DHT22;16167;48.768;14.984;2023-09-19T07:02:45;17.20;24.00
29093;DHT22;16167;48.768;14.984;2023-09-19T07:05:13;17.20;35.40
29093;DHT22;16167;48.768;14.984;2023-09-19T07:07:41;17.30;31.60
29093;DHT22;16167;48.768;14.984;2023-09-19T07:10:12;17.30;23.40
29093;DHT22;16167;48.768;14.984;2023-09-19T07:12:40;17.40;22.40
29093;DHT22;16167;48.768;14.984;2023-09-19T07:15:09;17.50;21.40
29093;DHT22;16167;48.768;14.984;2023-09-19T07:17:37;17.70;13.60
29093;DHT22;16167;48.768;14.984;2023-09-19T07:20:06;17.80;1.00
29093;DHT22;16167;48.768;14.984;2023-09-19T07:22:35;17.90;7.20
29093;DHT22;16167;48.768;14.984;2023-09-19T07:25:03;18.10;9.00
29093;DHT22;16167;48.768;14.984;2023-09-19T07:27:32;18.20;1.00
29093;DHT22;16167;48.768;14.984;2023-09-19T07:30:00;18.20;1.00
29093;DHT22;16167;48.768;14.984;2023-09-19T07:32:28;18.30;1.00
29093;DHT22;16167;48.768;14.984;2023-09-19T07:34:57;18.40;1.00
29093;DHT22;16167;48.768;14.984;2023-09-19T07:37:25;18.40;1.00
29093;DHT22;16167;48.768;14.984;2023-09-19T07:39:53;18.50;1.00
29093;DHT22;16167;48.768;14.984;2023-09-19T07:42:21;18.70;1.00
29093;DHT22;16167;48.768;14.984;2023-09-19T07:44:50;18.90;1.00
29093;DHT22;16167;48.768;14.984;2023-09-19T07:47:20;19.10;1.00
29093;DHT22;16167;48.768;14.984;2023-09-19T07:49:48;19.30;1.00
29093;DHT22;16167;48.768;14.984;2023-09-19T07:52:16;19.50;1.00
29093;DHT22;16167;48.768;14.984;2023-09-19T07:54:45;19.90;1.00
29093;DHT22;16167;48.768;14.984;2023-09-19T07:57:15;20.40;1.00
29093;DHT22;16167;48.768;14.984;2023-09-19T07:59:43;20.70;1.00
29093;DHT22;16167;48.768;14.984;2023-09-19T08:02:13;20.90;1.00
29093;DHT22;16167;48.768;14.984;2023-09-19T08:04:42;21.10;1.00
29093;DHT22;16167;48.768;14.984;2023-09-19T08:07:12;21.10;1.00
29093;DHT22;16167;48.768;14.984;2023-09-19T08:09:41;21.00;1.00
29093;DHT22;16167;48.768;14.984;2023-09-19T08:12:13;20.90;1.00
29093;DHT22;16167;48.768;14.984;2023-09-19T08:14:42;20.90;1.00
29093;DHT22;16167;48.768;14.984;2023-09-19T08:17:10;20.80;1.00
29093;DHT22;16167;48.768;14.984;2023-09-19T08:19:40;21.00;1.00
29093;DHT22;16167;48.768;14.984;2023-09-19T08:22:09;21.30;1.00
29093;DHT22;16167;48.768;14.984;2023-09-19T08:24:37;21.50;1.00
29093;DHT22;16167;48.768;14.984;2023-09-19T08:27:05;21.80;1.00
29093;DHT22;16167;48.768;14.984;2023-09-19T08:29:36;22.10;1.00
29093;DHT22;16167;48.768;14.984;2023-09-19T08:32:05;22.20;1.00
29093;DHT22;16167;48.768;14.984;2023-09-19T08:34:33;22.50;1.00
29093;DHT22;16167;48.768;14.984;2023-09-19T08:37:06;22.80;1.00
29093;DHT22;16167;48.768;14.984;2023-09-19T08:39:34;23.10;1.00
29093;DHT22;16167;48.768;14.984;2023-09-19T08:42:03;23.10;1.00
29093;DHT22;16167;48.768;14.984;2023-09-19T08:44:31;23.10;1.00
29093;DHT22;16167;48.768;14.984;2023-09-19T08:47:11;23.40;1.00
29093;DHT22;16167;48.768;14.984;2023-09-19T08:49:45;23.70;1.00
29093;DHT22;16167;48.768;14.984;2023-09-19T08:52:22;23.90;1.00
29093;DHT22;16167;48.768;14.984;2023-09-19T08:54:51;24.00;1.00
29093;DHT22;16167;48.768;14.984;2023-09-19T08:57:20;23.60;1.00
29093;DHT22;16167;48.768;14.984;2023-09-19T08:59:49;23.60;1.00
29093;DHT22;16167;48.768;14.984;2023-09-19T09:02:17;23.80;1.00
29093;DHT22;16167;48.768;14.984;2023-09-19T09:04:46;24.00;1.00
29093;DHT22;16167;48.768;14.984;2023-09-19T09:07:17;24.20;1.00
29093;DHT22;16167;48.768;14.984;2023-09-19T09:09:47;24.40;1.00
29093;DHT22;16167;48.768;14.984;2023-09-19T09:12:15;24.30;1.00
29093;DHT22;16167;48.768;14.984;2023-09-19T09:14:44;24.40;1.00
29093;DHT22;16167;48.768;14.984;2023-09-19T09:17:13;24.70;1.00
29093;DHT22;16167;48.768;14.984;2023-09-19T09:19:41;25.00;1.00
29093;DHT22;16167;48.768;14.984;2023-09-19T09:22:10;24.90;1.00
29093;DHT22;16167;48.768;14.984;2023-09-19T09:24:51;24.90;1.00
29093;DHT22;16167;48.768;14.984;2023-09-19T09:27:20;25.10;1.00
29093;DHT22;16167;48.768;14.984;2023-09-19T09:29:51;25.10;1.00
29093;DHT22;16167;48.768;14.984;2023-09-19T09:32:22;24.90;1.00
29093;DHT22;16167;48.768;14.984;2023-09-19T09:34:51;24.60;1.00
29093;DHT22;16167;48.768;14.984;2023-09-19T09:37:20;24.40;1.00
29093;DHT22;16167;48.768;14.984;2023-09-19T09:39:56;24.20;1.00
29093;DHT22;16167;48.768;14.984;2023-09-19T09:42:32;24.10;1.00
29093;DHT22;16167;48.768;14.984;2023-09-19T09:45:15;23.90;1.00
29093;DHT22;16167;48.768;14.984;2023-09-19T09:47:43;23.80;1.00
29093;DHT22;16167;48.768;14.984;2023-09-19T09:50:26;24.20;1.00
29093;DHT22;16167;48.768;14.984;2023-09-19T09:52:56;24.70;1.00
29093;DHT22;16167;48.768;14.984;2023-09-19T09:58:20;25.30;1.00
29093;DHT22;16167;48.768;14.984;2023-09-19T10:00:52;25.80;1.00
29093;DHT22;16167;48.768;14.984;2023-09-19T10:03:31;25.60;1.00
29093;DHT22;16167;48.768;14.984;2023-09-19T10:06:00;25.20;1.00
29093;DHT22;16167;48.768;14.984;2023-09-19T10:08:38;24.90;1.00
29093;DHT22;16167;48.768;14.984;2023-09-19T10:11:15;24.60;1.00
29093;DHT22;16167;48.768;14.984;2023-09-19T10:13:44;24.20;1.00
29093;DHT22;16167;48.768;14.984;2023-09-19T10:16:13;23.80;1.00
29093;DHT22;16167;48.768;14.984;2023-09-19T10:18:45;23.60;1.00
29093;DHT22;16167;48.768;14.984;2023-09-19T10:21:15;23.40;1.00
29093;DHT22;16167;48.768;14.984;2023-09-19T10:23:49;23.30;1.00
29093;DHT22;16167;48.768;14.984;2023-09-19T10:26:18;23.20;1.00
29093;DHT22;16167;48.768;14.984;2023-09-19T10:28:48;23.40;1.00
29093;DHT22;16167;48.768;14.984;2023-09-19T10:31:17;23.90;1.00
29093;DHT22;16167;48.768;14.984;2023-09-19T10:33:46;24.00;1.00
29093;DHT22;16167;48.768;14.984;2023-09-19T10:36:15;23.80;1.00
29093;DHT22;16167;48.768;14.984;2023-09-19T10:38:44;23.50;1.00
29093;DHT22;16167;48.768;14.984;2023-09-19T10:43:41;22.90;1.00
29093;DHT22;16167;48.768;14.984;2023-09-19T10:46:13;22.70;1.00
29093;DHT22;16167;48.768;14.984;2023-09-19T10:48:41;22.50;1.00
29093;DHT22;16167;48.768;14.984;2023-09-19T10:51:11;22.30;1.00
29093;DHT22;16167;48.768;14.984;2023-09-19T10:53:45;22.10;1.00
29093;DHT22;16167;48.768;14.984;2023-09-19T10:56:16;21.90;1.00
29093;DHT22;16167;48.768;14.984;2023-09-19T10:58:45;21.80;1.00
29093;DHT22;16167;48.768;14.984;2023-09-19T11:01:16;21.60;1.00
29093;DHT22;16167;48.768;14.984;2023-09-19T11:03:44;21.60;1.00
29093;DHT22;16167;48.768;14.984;2023-09-19T11:06:16;21.60;1.00
29093;DHT22;16167;48.768;14.984;2023-09-19T11:08:55;21.60;1.00
29093;DHT22;16167;48.768;14.984;2023-09-19T11:11:43;21.60;1.00
29093;DHT22;16167;48.768;14.984;2023-09-19T11:14:28;21.60;1.00
29093;DHT22;16167;48.768;14.984;2023-09-19T11:25:43;25.10;1.00
29093;DHT22;16167;48.768;14.984;2023-09-19T11:28:27;25.10;1.00
29093;DHT22;16167;48.768;14.984;2023-09-19T11:30:57;24.80;1.00
29093;DHT22;16167;48.768;14.984;2023-09-19T11:33:26;24.30;1.00
29093;DHT22;16167;48.768;14.984;2023-09-19T11:36:03;23.90;1.00
29093;DHT22;16167;48.768;14.984;2023-09-19T11:41:37;23.30;1.00
29093;DHT22;16167;48.768;14.984;2023-09-19T11:46:53;22.90;1.00
29093;DHT22;16167;48.768;14.984;2023-09-19T11:49:25;22.80;1.00
29093;DHT22;16167;48.768;14.984;2023-09-19T11:51:58;22.70;1.00
29093;DHT22;16167;48.768;14.984;2023-09-19T11:54:27;22.80;1.00
29093;DHT22;16167;48.768;14.984;2023-09-19T11:57:00;23.00;1.00
29093;DHT22;16167;48.768;14.984;2023-09-19T11:59:29;23.50;1.00
29093;DHT22;16167;48.768;14.984;2023-09-19T12:01:58;24.00;1.00
29093;DHT22;16167;48.768;14.984;2023-09-19T12:04:33;24.20;1.00
29093;DHT22;16167;48.768;14.984;2023-09-19T12:07:02;25.10;1.00
29093;DHT22;16167;48.768;14.984;2023-09-19T12:09:31;26.20;1.00
29093;DHT22;16167;48.768;14.984;2023-09-19T12:12:00;27.20;1.00
29093;DHT22;16167;48.768;14.984;2023-09-19T12:14:28;27.50;1.00
29093;DHT22;16167;48.768;14.984;2023-09-19T12:16:57;27.90;1.00
29093;DHT22;16167;48.768;14.984;2023-09-19T12:19:28;28.20;1.00
29093;DHT22;16167;48.768;14.984;2023-09-19T12:21:56;28.50;1.00
29093;DHT22;16167;48.768;14.984;2023-09-19T12:24:26;29.00;1.00
29093;DHT22;16167;48.768;14.984;2023-09-19T12:27:02;29.40;1.00
29093;DHT22;16167;48.768;14.984;2023-09-19T12:29:32;29.90;1.00
29093;DHT22;16167;48.768;14.984;2023-09-19T12:32:09;30.30;1.00
29093;DHT22;16167;48.768;14.984;2023-09-19T12:34:38;30.40;1.00
29093;DHT22;16167;48.768;14.984;2023-09-19T12:37:10;31.00;1.00
29093;DHT22;16167;48.768;14.984;2023-09-19T12:39:42;30.90;1.00
29093;DHT22;16167;48.768;14.984;2023-09-19T12:42:17;30.30;1.00
29093;DHT22;16167;48.768;14.984;2023-09-19T12:44:45;29.60;1.00
29093;DHT22;16167;48.768;14.984;2023-09-19T12:47:15;29.70;1.00
29093;DHT22;16167;48.768;14.984;2023-09-19T12:50:05;29.60;1.00
29093;DHT22;16167;48.768;14.984;2023-09-19T12:52:35;29.90;1.00
29093;DHT22;16167;48.768;14.984;2023-09-19T12:55:04;30.50;1.00
29093;DHT22;16167;48.768;14.984;2023-09-19T12:57:35;30.80;1.00
29093;DHT22;16167;48.768;14.984;2023-09-19T13:00:03;30.80;1.00
29093;DHT22;16167;48.768;14.984;2023-09-19T13:02:32;31.10;1.00
29093;DHT22;16167;48.768;14.984;2023-09-19T13:05:00;31.40;1.00
29093;DHT22;16167;48.768;14.984;2023-09-19T13:07:40;31.90;1.00
29093;DHT22;16167;48.768;14.984;2023-09-19T13:10:10;32.40;1.00
29093;DHT22;16167;48.768;14.984;2023-09-19T13:12:43;32.70;1.00
29093;DHT22;16167;48.768;14.984;2023-09-19T13:15:14;32.70;1.00
29093;DHT22;16167;48.768;14.984;2023-09-19T13:17:46;32.50;1.00
29093;DHT22;16167;48.768;14.984;2023-09-19T13:20:22;32.50;1.00
29093;DHT22;16167;48.768;14.984;2023-09-19T13:22:54;32.50;1.00
29093;DHT22;16167;48.768;14.984;2023-09-19T13:25:25;32.40;1.00
29093;DHT22;16167;48.768;14.984;2023-09-19T13:27:57;32.60;1.00
29093;DHT22;16167;48.768;14.984;2023-09-19T13:30:26;32.80;1.00
29093;DHT22;16167;48.768;14.984;2023-09-19T13:33:05;32.90;1.00
29093;DHT22;16167;48.768;14.984;2023-09-19T13:35:34;32.70;1.00
29093;DHT22;16167;48.768;14.984;2023-09-19T13:38:02;32.40;1.00
29093;DHT22;16167;48.768;14.984;2023-09-19T13:40:30;32.50;1.00
29093;DHT22;16167;48.768;14.984;2023-09-19T13:43:03;32.40;1.00
29093;DHT22;16167;48.768;14.984;2023-09-19T13:45:33;32.50;1.00
29093;DHT22;16167;48.768;14.984;2023-09-19T13:48:01;32.70;1.00
29093;DHT22;16167;48.768;14.984;2023-09-19T13:50:29;32.70;1.00
29093;DHT22;16167;48.768;14.984;2023-09-19T13:52:58;32.50;1.00
29093;DHT22;16167;48.768;14.984;2023-09-19T13:55:27;32.40;1.00
29093;DHT22;16167;48.768;14.984;2023-09-19T13:57:55;32.40;1.00
29093;DHT22;16167;48.768;14.984;2023-09-19T14:00:25;32.40;1.00
29093;DHT22;16167;48.768;14.984;2023-09-19T14:02:53;31.80;1.00
29093;DHT22;16167;48.768;14.984;2023-09-19T14:05:22;30.90;1.00
29093;DHT22;16167;48.768;14.984;2023-09-19T14:07:53;30.00;1.00
29093;DHT22;16167;48.768;14.984;2023-09-19T14:10:22;29.00;1.00
29093;DHT22;16167;48.768;14.984;2023-09-19T14:12:50;28.30;1.00
29093;DHT22;16167;48.768;14.984;2023-09-19T14:15:18;27.80;1.00
29093;DHT22;16167;48.768;14.984;2023-09-19T14:17:48;27.30;1.00
29093;DHT22;16167;48.768;14.984;2023-09-19T14:20:16;26.90;1.00
29093;DHT22;16167;48.768;14.984;2023-09-19T14:22:44;26.50;1.00
29093;DHT22;16167;48.768;14.984;2023-09-19T14:25:12;26.20;1.00
29093;DHT22;16167;48.768;14.984;2023-09-19T14:27:40;25.80;1.00
29093;DHT22;16167;48.768;14.984;2023-09-19T14:30:08;25.40;1.00
29093;DHT22;16167;48.768;14.984;2023-09-19T14:32:36;25.10;1.00
29093;DHT22;16167;48.768;14.984;2023-09-19T14:35:06;24.70;1.00
29093;DHT22;16167;48.768;14.984;2023-09-19T14:37:36;24.40;1.00
29093;DHT22;16167;48.768;14.984;2023-09-19T14:40:05;24.20;1.00
29093;DHT22;16167;48.768;14.984;2023-09-19T14:42:35;24.00;1.00
29093;DHT22;16167;48.768;14.984;2023-09-19T14:45:05;23.70;1.00
29093;DHT22;16167;48.768;14.984;2023-09-19T14:47:33;23.60;1.00
29093;DHT22;16167;48.768;14.984;2023-09-19T14:50:01;23.40;1.00
29093;DHT22;16167;48.768;14.984;2023-09-19T14:52:35;23.10;1.00
29093;DHT22;16167;48.768;14.984;2023-09-19T14:55:03;23.00;1.00
29093;DHT22;16167;48.768;14.984;2023-09-19T14:57:33;22.90;1.00
29093;DHT22;16167;48.768;14.984;2023-09-19T15:00:01;22.90;1.00
29093;DHT22;16167;48.768;14.984;2023-09-19T15:02:33;22.80;1.00
29093;DHT22;16167;48.768;14.984;2023-09-19T15:05:01;22.70;1.00
29093;DHT22;16167;48.768;14.984;2023-09-19T15:07:30;22.70;1.00
29093;DHT22;16167;48.768;14.984;2023-09-19T15:09:59;22.60;1.00
29093;DHT22;16167;48.768;14.984;2023-09-19T15:12:27;22.60;1.00
29093;DHT22;16167;48.768;14.984;2023-09-19T15:14:55;22.60;1.00
29093;DHT22;16167;48.768;14.984;2023-09-19T15:17:23;22.60;1.00
29093;DHT22;16167;48.768;14.984;2023-09-19T15:19:52;22.60;1.00
29093;DHT22;16167;48.768;14.984;2023-09-19T15:22:20;22.60;1.00
29093;DHT22;16167;48.768;14.984;2023-09-19T15:24:49;22.60;1.00
29093;DHT22;16167;48.768;14.984;2023-09-19T15:27:19;22.60;1.00
29093;DHT22;16167;48.768;14.984;2023-09-19T15:29:47;22.40;1.00
29093;DHT22;16167;48.768;14.984;2023-09-19T15:32:14;22.30;1.00
29093;DHT22;16167;48.768;14.984;2023-09-19T15:34:42;22.10;1.00
29093;DHT22;16167;48.768;14.984;2023-09-19T15:37:10;22.00;1.00
29093;DHT22;16167;48.768;14.984;2023-09-19T15:39:38;21.90;1.00
29093;DHT22;16167;48.768;14.984;2023-09-19T15:42:06;21.70;1.00
29093;DHT22;16167;48.768;14.984;2023-09-19T15:44:36;21.60;1.00
29093;DHT22;16167;48.768;14.984;2023-09-19T15:47:04;21.50;1.00
29093;DHT22;16167;48.768;14.984;2023-09-19T15:49:32;21.30;1.00
29093;DHT22;16167;48.768;14.984;2023-09-19T15:52:00;21.20;1.00
29093;DHT22;16167;48.768;14.984;2023-09-19T15:54:29;21.10;1.00
29093;DHT22;16167;48.768;14.984;2023-09-19T15:56:59;21.00;1.00
29093;DHT22;16167;48.768;14.984;2023-09-19T15:59:27;20.80;1.00
29093;DHT22;16167;48.768;14.984;2023-09-19T16:01:58;20.70;1.00
29093;DHT22;16167;48.768;14.984;2023-09-19T16:04:26;20.60;1.00
29093;DHT22;16167;48.768;14.984;2023-09-19T16:06:54;20.40;1.00